Time;durP1;ratioP1;P1;durP2;ratioP2;P2;SDS_P1;SDS_P2;PMS_P1;PMS_P2;Temp;Humidity;BMP_temperature;BMP_pressure;BME280_temperature;BME280_humidity;BME280_pressure;Samples;Min_cycle;Max_cycle;Signal;HPM_P1;HPM_P2
2023/08/14 00:01:07;;;;;;;;;;;;;;;16.66;93.55;101546.91;5024344;28;19909;-54
2023/08/14 00:03:33;;;;;;;;;;;;;;;16.72;93.18;101540.81;5025146;28;19960;-54
2023/08/14 00:05:58;;;;;;;;;;;;;;;16.73;93.03;101543.44;5021619;28;19909;-54
2023/08/14 00:08:23;;;;;;;;;;;;;;;16.72;92.75;101540.81;5021073;28;20214;-54
2023/08/14 00:10:48;;;;;;;;;;;;;;;16.62;92.26;101540.69;5023209;28;19940;-54
2023/08/14 00:13:19;;;;;;;;;;;;;;;16.47;93.03;101540.56;5024557;28;19924;-54
2023/08/14 00:15:44;;;;;;;;;;;;;;;16.33;93.58;101548.28;5024890;28;19909;-54
2023/08/14 00:18:09;;;;;;;;;;;;;;;16.28;94.18;101555.22;5011679;28;20162;-54
2023/08/14 00:20:34;;;;;;;;;;;;;;;16.11;93.75;101548.03;5020840;28;19957;-54
2023/08/14 00:23:00;;;;;;;;;;;;;;;16.00;94.34;101541.78;5021787;28;19912;-54
2023/08/14 00:25:25;;;;;;;;;;;;;;;15.96;94.88;101538.22;5022845;28;19927;-54
2023/08/14 00:27:50;;;;;;;;;;;;;;;15.96;95.28;101535.59;5024365;28;19920;-54
2023/08/14 00:30:15;;;;;;;;;;;;;;;16.01;95.87;101540.91;5023515;28;19981;-54
2023/08/14 00:32:40;;;;;;;;;;;;;;;16.04;95.05;101533.06;5022457;28;19929;-54
2023/08/14 00:35:06;;;;;;;;;;;;;;;16.05;95.16;101529.56;5024102;28;19909;-54
2023/08/14 00:37:47;;;;;;;;;;;;;;;16.08;94.75;101526.97;5016763;28;19909;-54
2023/08/14 00:40:13;;;;;;;;;;;;;;;16.14;95.04;101534.94;5020740;28;19922;-54
2023/08/14 00:42:38;;;;;;;;;;;;;;;16.17;94.79;101542.84;5013675;28;19909;-54
2023/08/14 00:45:05;;;;;;;;;;;;;;;16.20;94.42;101535.88;5024817;28;19905;-54
2023/08/14 00:47:31;;;;;;;;;;;;;;;16.22;94.25;101539.41;5024663;28;19912;-54
2023/08/14 00:49:56;;;;;;;;;;;;;;;16.26;94.22;101530.69;5019378;28;19917;-54
2023/08/14 00:52:21;;;;;;;;;;;;;;;16.29;93.92;101535.97;5024387;28;19916;-54
2023/08/14 00:54:47;;;;;;;;;;;;;;;16.28;93.93;101531.56;5020398;28;20139;-54
2023/08/14 00:57:12;;;;;;;;;;;;;;;16.26;93.69;101531.56;5022501;28;20305;-55
2023/08/14 00:59:37;;;;;;;;;;;;;;;16.26;93.46;101522.78;5024227;28;19988;-54
2023/08/14 01:02:03;;;;;;;;;;;;;;;16.27;93.06;101527.19;5024474;28;19905;-54
2023/08/14 01:04:28;;;;;;;;;;;;;;;16.23;93.60;101526.25;5022763;28;20185;-54
2023/08/14 01:06:53;;;;;;;;;;;;;;;16.25;93.72;101523.66;5023218;28;19913;-54
2023/08/14 01:09:19;;;;;;;;;;;;;;;16.27;93.99;101522.81;5022785;28;19924;-54
2023/08/14 01:12:00;;;;;;;;;;;;;;;16.26;93.49;101520.16;5023304;28;19926;-55
2023/08/14 01:14:29;;;;;;;;;;;;;;;16.22;93.77;101518.38;5023666;28;19925;-54
2023/08/14 01:16:58;;;;;;;;;;;;;;;16.19;93.71;101518.31;5020860;28;20146;-54
2023/08/14 01:19:29;;;;;;;;;;;;;;;16.16;93.46;101516.53;5022310;28;19909;-54
2023/08/14 01:22:13;;;;;;;;;;;;;;;16.12;93.26;101515.63;5019701;28;20161;-54
2023/08/14 01:24:57;;;;;;;;;;;;;;;16.10;93.30;101514.72;5008942;28;19909;-54
2023/08/14 01:27:22;;;;;;;;;;;;;;;16.11;93.47;101511.25;5017778;28;19916;-54
2023/08/14 01:29:53;;;;;;;;;;;;;;;16.11;93.55;101502.47;5023108;28;20063;-54
2023/08/14 01:32:18;;;;;;;;;;;;;;;16.08;93.25;101499.81;5021946;28;22112;-54
2023/08/14 01:34:43;;;;;;;;;;;;;;;16.09;93.70;101496.31;5022170;28;19928;-54
2023/08/14 01:37:17;;;;;;;;;;;;;;;16.07;93.62;101498.91;5021894;28;20094;-54
2023/08/14 01:39:51;;;;;;;;;;;;;;;16.09;93.20;101497.22;5020565;28;19984;-54
2023/08/14 01:42:19;;;;;;;;;;;;;;;16.04;93.48;101496.25;5023594;28;20086;-54
2023/08/14 01:44:44;;;;;;;;;;;;;;;16.01;93.55;101493.59;5022155;28;20059;-55
2023/08/14 01:47:12;;;;;;;;;;;;;;;15.99;93.47;101487.47;5022166;28;20135;-54
2023/08/14 01:49:38;;;;;;;;;;;;;;;15.98;93.80;101483.06;5023112;28;19941;-54
2023/08/14 01:52:04;;;;;;;;;;;;;;;15.98;93.58;101475.16;5023034;28;19944;-54
2023/08/14 01:54:29;;;;;;;;;;;;;;;15.93;93.68;101474.22;5022664;28;21002;-54
2023/08/14 01:56:55;;;;;;;;;;;;;;;15.84;93.70;101472.38;5022639;28;19914;-54
2023/08/14 01:59:27;;;;;;;;;;;;;;;15.71;96.03;101473.91;5022644;28;20150;-54
2023/08/14 02:01:52;;;;;;;;;;;;;;;15.59;95.63;101471.16;5020855;28;20210;-54
2023/08/14 02:04:17;;;;;;;;;;;;;;;15.54;95.34;101465.84;5022517;28;20041;-54
2023/08/14 02:06:42;;;;;;;;;;;;;;;15.51;96.21;101472.78;5022218;28;19917;-54
2023/08/14 02:09:07;;;;;;;;;;;;;;;15.51;95.85;101470.16;5022241;28;20144;-54
2023/08/14 02:11:35;;;;;;;;;;;;;;;15.47;96.13;101462.25;5022211;28;20012;-54
2023/08/14 02:14:00;;;;;;;;;;;;;;;15.45;96.33;101466.63;5022228;28;19917;-54
2023/08/14 02:16:25;;;;;;;;;;;;;;;15.48;96.32;101471.91;5021503;28;19909;-54
2023/08/14 02:18:50;;;;;;;;;;;;;;;15.48;96.76;101471.91;5022818;28;19909;-54
2023/08/14 02:21:16;;;;;;;;;;;;;;;15.50;97.09;101461.41;5021053;28;20295;-54
2023/08/14 02:23:41;;;;;;;;;;;;;;;15.51;96.81;101459.66;5021504;28;19916;-54
2023/08/14 02:26:08;;;;;;;;;;;;;;;15.51;96.47;101441.28;5021679;28;20236;-54
2023/08/14 02:28:33;;;;;;;;;;;;;;;15.53;96.18;101453.56;5020776;28;19909;-55
2023/08/14 02:31:01;;;;;;;;;;;;;;;15.54;96.01;101459.69;5021634;28;19916;-54
2023/08/14 02:33:26;;;;;;;;;;;;;;;15.53;96.01;101453.56;5021579;28;19948;-54
2023/08/14 02:35:51;;;;;;;;;;;;;;;15.48;95.85;101443.00;5022051;28;20155;-54
2023/08/14 02:38:16;;;;;;;;;;;;;;;15.47;96.45;101438.59;5022471;28;19910;-54
2023/08/14 02:40:42;;;;;;;;;;;;;;;15.47;96.31;101437.75;5004082;28;19916;-54
2023/08/14 02:43:07;;;;;;;;;;;;;;;15.47;95.93;101443.00;5022616;28;19910;-54
2023/08/14 02:45:32;;;;;;;;;;;;;;;15.43;95.99;101446.44;5021198;28;19977;-54
2023/08/14 02:47:57;;;;;;;;;;;;;;;15.42;96.10;101436.78;5021585;28;19945;-54
2023/08/14 02:50:23;;;;;;;;;;;;;;;15.43;95.89;101430.69;5022494;28;19909;-54
2023/08/14 02:52:48;;;;;;;;;;;;;;;15.40;95.96;101438.53;5021884;28;19932;-53
2023/08/14 02:55:13;;;;;;;;;;;;;;;15.42;95.92;101440.28;5022302;28;19909;-54
2023/08/14 02:57:39;;;;;;;;;;;;;;;15.43;95.74;101444.69;5022677;28;19909;-54
2023/08/14 03:00:04;;;;;;;;;;;;;;;15.38;95.22;101446.38;5018801;28;20128;-54
2023/08/14 03:02:30;;;;;;;;;;;;;;;15.22;95.85;101441.75;5018813;28;19910;-54
2023/08/14 03:04:55;;;;;;;;;;;;;;;15.07;97.70;101439.81;5020931;28;20102;-54
2023/08/14 03:07:20;;;;;;;;;;;;;;;14.93;99.98;101440.50;5007113;28;19911;-54
2023/08/14 03:09:45;;;;;;;;;;;;;;;14.81;99.65;101437.66;5019983;28;20151;-54
2023/08/14 03:12:11;;;;;;;;;;;;;;;14.72;98.98;101440.16;5021952;28;19926;-54
2023/08/14 03:14:36;;;;;;;;;;;;;;;14.68;98.83;101439.22;5021462;28;19992;-54
2023/08/14 03:17:01;;;;;;;;;;;;;;;14.67;99.16;101442.72;5023887;28;19909;-54
2023/08/14 03:19:26;;;;;;;;;;;;;;;14.70;98.90;101442.75;5025667;28;19909;-54
2023/08/14 03:21:52;;;;;;;;;;;;;;;14.76;99.01;101452.47;5025471;28;19906;-55
2023/08/14 03:24:18;;;;;;;;;;;;;;;14.82;98.75;101454.31;5024725;28;19909;-55
2023/08/14 03:26:43;;;;;;;;;;;;;;;14.81;98.01;101449.91;5025871;28;19916;-54
2023/08/14 03:29:08;;;;;;;;;;;;;;;14.79;98.35;101447.25;5018211;28;19921;-55
2023/08/14 03:31:34;;;;;;;;;;;;;;;14.85;98.49;101441.22;5025669;28;20091;-54
2023/08/14 03:33:59;;;;;;;;;;;;;;;14.86;98.57;101442.97;5025546;28;19906;-54
2023/08/14 03:36:24;;;;;;;;;;;;;;;14.87;98.33;101439.50;5024860;28;19909;-54
2023/08/14 03:38:49;;;;;;;;;;;;;;;14.90;98.51;101443.06;5024861;28;19932;-54
2023/08/14 03:41:15;;;;;;;;;;;;;;;14.91;97.95;101439.56;5024522;28;19928;-54
2023/08/14 03:43:40;;;;;;;;;;;;;;;14.94;98.08;101439.59;5023889;28;20159;-54
2023/08/14 03:46:05;;;;;;;;;;;;;;;14.97;97.58;101438.78;5024876;28;20148;-54
2023/08/14 03:48:30;;;;;;;;;;;;;;;14.99;97.55;101444.97;5024871;28;19909;-54
2023/08/14 03:50:56;;;;;;;;;;;;;;;15.00;97.60;101449.31;5024842;28;20135;-54
2023/08/14 03:53:21;;;;;;;;;;;;;;;15.00;97.55;101444.06;5024800;28;19937;-54
2023/08/14 03:55:46;;;;;;;;;;;;;;;15.02;97.49;101444.09;5024090;28;19963;-54
2023/08/14 03:58:11;;;;;;;;;;;;;;;15.02;97.35;101446.72;5024193;28;19909;-54
2023/08/14 04:00:37;;;;;;;;;;;;;;;15.02;96.85;101439.75;5023658;28;19931;-54
2023/08/14 04:03:02;;;;;;;;;;;;;;;14.99;97.20;101437.09;5025085;28;20131;-54
2023/08/14 04:05:27;;;;;;;;;;;;;;;14.98;97.35;101440.56;5024608;28;19918;-54
2023/08/14 04:07:52;;;;;;;;;;;;;;;14.95;97.18;101443.13;5024141;28;19921;-54
2023/08/14 04:10:17;;;;;;;;;;;;;;;14.91;96.90;101436.06;5024901;28;19925;-54
2023/08/14 04:12:43;;;;;;;;;;;;;;;14.80;96.90;101438.50;5025231;28;20153;-54
2023/08/14 04:15:11;;;;;;;;;;;;;;;14.76;97.02;101437.59;5023280;28;20144;-55
2023/08/14 04:17:36;;;;;;;;;;;;;;;14.75;97.03;101433.19;5024461;28;20141;-54
2023/08/14 04:20:02;;;;;;;;;;;;;;;14.75;97.13;101429.72;5023077;28;19934;-55
2023/08/14 04:22:27;;;;;;;;;;;;;;;14.75;97.35;101429.72;5023466;28;19992;-54
2023/08/14 04:24:52;;;;;;;;;;;;;;;14.74;97.11;101420.06;5024604;28;19913;-54
2023/08/14 04:27:17;;;;;;;;;;;;;;;14.74;97.04;101418.34;5023715;28;19917;-54
2023/08/14 04:29:42;;;;;;;;;;;;;;;14.71;96.94;101420.00;5023350;28;20063;-54
2023/08/14 04:32:08;;;;;;;;;;;;;;;14.71;96.95;101418.25;5022746;28;19909;-55
2023/08/14 04:34:33;;;;;;;;;;;;;;;14.71;97.20;101413.03;5024299;28;19917;-54
2023/08/14 04:36:58;;;;;;;;;;;;;;;14.71;96.85;101413.03;5021174;28;20062;-54
2023/08/14 04:39:23;;;;;;;;;;;;;;;14.73;97.13;101415.66;5022662;28;19909;-55
2023/08/14 04:41:48;;;;;;;;;;;;;;;14.71;97.07;101413.03;5024824;28;19906;-54
2023/08/14 04:44:14;;;;;;;;;;;;;;;14.71;97.17;101407.78;5024785;28;20867;-54
2023/08/14 04:46:39;;;;;;;;;;;;;;;14.70;97.04;101406.03;5024808;28;19913;-54
2023/08/14 04:49:04;;;;;;;;;;;;;;;14.71;96.98;101399.03;5023729;28;19909;-54
2023/08/14 04:51:30;;;;;;;;;;;;;;;14.70;97.32;101405.13;5023969;28;19909;-55
2023/08/14 04:53:56;;;;;;;;;;;;;;;14.72;97.48;101408.69;5021039;28;20049;-54
2023/08/14 04:56:21;;;;;;;;;;;;;;;14.72;97.31;101393.81;5024134;28;19951;-54
2023/08/14 04:58:47;;;;;;;;;;;;;;;14.75;97.20;101396.47;5024651;28;19921;-54
2023/08/14 05:01:12;;;;;;;;;;;;;;;14.75;97.61;101399.09;5024317;28;20205;-55
2023/08/14 05:03:37;;;;;;;;;;;;;;;14.77;97.57;101386.91;5023412;28;19925;-54
2023/08/14 05:06:03;;;;;;;;;;;;;;;14.82;97.55;101388.72;5023820;28;19905;-54
2023/08/14 05:08:28;;;;;;;;;;;;;;;14.85;97.70;101391.38;5023444;28;20072;-54
2023/08/14 05:10:54;;;;;;;;;;;;;;;14.82;98.26;101386.09;5024376;28;19916;-54
2023/08/14 05:13:19;;;;;;;;;;;;;;;14.82;98.49;101380.84;5023553;28;19917;-55
2023/08/14 05:15:46;;;;;;;;;;;;;;;14.85;98.61;101379.13;5021910;28;20146;-55
2023/08/14 05:18:11;;;;;;;;;;;;;;;14.88;98.82;101368.69;5023774;28;19913;-54
2023/08/14 05:20:36;;;;;;;;;;;;;;;14.92;98.96;101375.75;5022699;28;19924;-54
2023/08/14 05:23:01;;;;;;;;;;;;;;;14.97;98.99;101386.28;5022761;28;19987;-54
2023/08/14 05:25:26;;;;;;;;;;;;;;;15.02;99.19;101386.34;5022834;28;19924;-55
2023/08/14 05:27:52;;;;;;;;;;;;;;;15.08;99.37;101375.97;5023876;28;19916;-54
2023/08/14 05:30:17;;;;;;;;;;;;;;;15.14;99.78;101386.53;5023196;28;20155;-54
2023/08/14 05:32:46;;;;;;;;;;;;;;;15.19;99.65;101386.59;5023139;28;19930;-54
2023/08/14 05:35:11;;;;;;;;;;;;;;;15.24;99.50;101393.66;5022806;28;19905;-54
2023/08/14 05:37:36;;;;;;;;;;;;;;;15.28;99.77;101384.97;5022540;28;19917;-55
2023/08/14 05:40:02;;;;;;;;;;;;;;;15.33;99.94;101392.91;5022006;28;19912;-54
2023/08/14 05:42:27;;;;;;;;;;;;;;;15.39;100.00;101397.34;5023169;28;19910;-54
2023/08/14 05:44:52;;;;;;;;;;;;;;;15.42;100.00;101395.63;5022925;28;19905;-54
2023/08/14 05:47:18;;;;;;;;;;;;;;;15.47;100.00;101400.97;5022408;28;20304;-55
2023/08/14 05:49:43;;;;;;;;;;;;;;;15.51;100.00;101402.78;5022411;28;19928;-54
2023/08/14 05:52:08;;;;;;;;;;;;;;;15.55;100.00;101403.69;5022114;28;19909;-55
2023/08/14 05:54:33;;;;;;;;;;;;;;;15.57;100.00;101402.84;5022195;28;19905;-55
2023/08/14 05:56:58;;;;;;;;;;;;;;;15.60;100.00;101409.88;5022543;28;19909;-55
2023/08/14 05:59:23;;;;;;;;;;;;;;;15.63;100.00;101417.81;5022325;28;19906;-54
2023/08/14 06:01:49;;;;;;;;;;;;;;;15.66;100.00;101415.19;5021815;28;20082;-54
2023/08/14 06:04:14;;;;;;;;;;;;;;;15.69;100.00;101417.88;5021617;28;20179;-55
2023/08/14 06:06:39;;;;;;;;;;;;;;;15.72;100.00;101417.91;5022432;28;19920;-54
2023/08/14 06:09:04;;;;;;;;;;;;;;;15.76;100.00;101427.59;5021363;28;20044;-55
2023/08/14 06:11:30;;;;;;;;;;;;;;;15.78;100.00;101425.88;5013691;28;20159;-54
2023/08/14 06:13:55;;;;;;;;;;;;;;;15.83;100.00;101433.84;5021214;28;20165;-55
2023/08/14 06:16:20;;;;;;;;;;;;;;;15.85;100.00;101439.97;5023011;28;20139;-55
2023/08/14 06:18:45;;;;;;;;;;;;;;;15.90;100.00;101422.53;5022182;28;19909;-55
2023/08/14 06:21:10;;;;;;;;;;;;;;;15.93;100.00;101422.56;5022316;28;19909;-55
2023/08/14 06:23:36;;;;;;;;;;;;;;;15.97;100.00;101415.56;5022570;28;20041;-55
2023/08/14 06:26:01;;;;;;;;;;;;;;;15.99;100.00;101412.09;5020764;28;19953;-55
2023/08/14 06:28:26;;;;;;;;;;;;;;;16.02;100.00;101418.25;5022663;28;19996;-55
2023/08/14 06:30:52;;;;;;;;;;;;;;;16.05;100.00;101406.03;5021202;28;19936;-55
2023/08/14 06:33:17;;;;;;;;;;;;;;;16.10;100.00;101403.44;5021738;28;19956;-54
2023/08/14 06:35:42;;;;;;;;;;;;;;;16.17;100.00;101410.50;5022155;28;19915;-55
2023/08/14 06:38:08;;;;;;;;;;;;;;;16.22;100.00;101410.56;5022355;28;19948;-55
2023/08/14 06:40:33;;;;;;;;;;;;;;;16.29;100.00;101405.38;5022108;28;19913;-55
2023/08/14 06:42:59;;;;;;;;;;;;;;;16.38;100.00;101412.47;5022943;28;20082;-55
2023/08/14 06:45:24;;;;;;;;;;;;;;;16.48;100.00;101411.69;5021507;28;19933;-55
2023/08/14 06:51:11;;;;;;;;;;;;;;;16.64;100.00;101402.16;5008709;28;19909;-55
2023/08/14 06:53:36;;;;;;;;;;;;;;;16.70;100.00;101406.59;5035379;28;19955;-54
2023/08/14 06:56:01;;;;;;;;;;;;;;;16.73;100.00;101405.72;5025593;28;19944;-55
2023/08/14 06:58:26;;;;;;;;;;;;;;;16.81;100.00;101398.75;5024599;28;19913;-55
2023/08/14 07:00:52;;;;;;;;;;;;;;;16.91;100.00;101399.72;5026406;28;20401;-55
2023/08/14 07:03:17;;;;;;;;;;;;;;;17.00;100.00;101398.06;5023255;28;19964;-56
2023/08/14 07:05:42;;;;;;;;;;;;;;;17.16;100.00;101399.00;5006989;28;20075;-55
2023/08/14 07:08:08;;;;;;;;;;;;;;;17.35;100.00;101397.34;5025257;28;19916;-55
2023/08/14 07:10:33;;;;;;;;;;;;;;;17.53;100.00;101391.25;5025133;28;19944;-56
2023/08/14 07:12:58;;;;;;;;;;;;;;;17.68;100.00;101389.53;5007499;28;19932;-55
2023/08/14 07:15:24;;;;;;;;;;;;;;;17.79;100.00;101389.59;5026227;28;19976;-56
2023/08/14 07:17:50;;;;;;;;;;;;;;;17.84;100.00;101395.75;5026278;28;20124;-55
2023/08/14 07:20:15;;;;;;;;;;;;;;;17.87;100.00;101391.38;5020069;28;19918;-55
2023/08/14 07:22:40;;;;;;;;;;;;;;;17.90;100.00;101379.97;5023282;28;20174;-56
2023/08/14 07:25:06;;;;;;;;;;;;;;;17.94;100.00;101386.13;5025655;28;20108;-55
2023/08/14 07:27:31;;;;;;;;;;;;;;;17.96;100.00;101389.63;5016666;28;20157;-56
2023/08/14 07:29:56;;;;;;;;;;;;;;;17.99;100.00;101392.31;5026083;28;19917;-56
2023/08/14 07:32:22;;;;;;;;;;;;;;;18.03;100.00;101397.59;5026234;28;19917;-56
2023/08/14 07:34:48;;;;;;;;;;;;;;;18.12;100.00;101404.63;5024933;28;19921;-56
2023/08/14 07:37:13;;;;;;;;;;;;;;;18.13;100.00;101416.91;5024988;28;19916;-56
2023/08/14 07:39:38;;;;;;;;;;;;;;;18.12;100.00;101412.53;5025847;28;19909;-55
2023/08/14 07:42:04;;;;;;;;;;;;;;;18.14;100.00;101413.41;5024580;28;19956;-56
2023/08/14 07:44:29;;;;;;;;;;;;;;;18.18;100.00;101417.81;5023565;28;19976;-56
2023/08/14 07:46:54;;;;;;;;;;;;;;;18.24;100.00;101420.44;5025219;28;19909;-56
2023/08/14 07:49:19;;;;;;;;;;;;;;;18.33;100.00;101409.03;5025478;28;19916;-56
2023/08/14 07:51:44;;;;;;;;;;;;;;;18.45;100.00;101412.56;5024911;28;20063;-55
2023/08/14 07:54:09;;;;;;;;;;;;;;;18.56;100.00;101413.44;5022745;28;19909;-55
2023/08/14 07:56:37;;;;;;;;;;;;;;;18.67;100.00;101413.41;5023873;28;19928;-55
2023/08/14 07:59:05;;;;;;;;;;;;;;;18.79;100.00;101413.41;5024039;28;20003;-55
2023/08/14 08:01:31;;;;;;;;;;;;;;;18.91;100.00;101412.53;5022792;28;19909;-56
2023/08/14 08:03:56;;;;;;;;;;;;;;;19.02;100.00;101415.19;5023769;28;19914;-55
2023/08/14 08:06:22;;;;;;;;;;;;;;;19.11;99.01;101401.94;5025363;28;19911;-56
2023/08/14 08:08:47;;;;;;;;;;;;;;;19.25;98.44;101405.41;5021722;28;19929;-56
2023/08/14 08:11:12;;;;;;;;;;;;;;;19.38;95.76;101408.00;5024610;28;19915;-55
2023/08/14 08:13:38;;;;;;;;;;;;;;;19.52;96.06;101402.66;5024197;28;19909;-56
2023/08/14 08:16:03;;;;;;;;;;;;;;;19.64;94.99;101400.84;5024668;28;20008;-55
2023/08/14 08:18:28;;;;;;;;;;;;;;;19.80;94.95;101403.44;5019719;28;19909;-55
2023/08/14 08:20:53;;;;;;;;;;;;;;;19.94;93.83;101396.31;5023756;28;19916;-55
2023/08/14 08:23:18;;;;;;;;;;;;;;;20.07;92.82;101396.22;5006296;28;19909;-55
2023/08/14 08:25:44;;;;;;;;;;;;;;;20.21;91.44;101398.78;5024382;28;19913;-55
2023/08/14 08:28:09;;;;;;;;;;;;;;;20.34;93.29;101392.47;5004518;28;19913;-55
2023/08/14 08:30:34;;;;;;;;;;;;;;;20.48;89.82;101392.38;5017003;28;19925;-57
2023/08/14 08:32:59;;;;;;;;;;;;;;;20.61;91.02;101383.44;5024568;28;19916;-55
2023/08/14 08:35:24;;;;;;;;;;;;;;;20.77;91.72;101385.94;5023209;28;19918;-56
2023/08/14 08:37:50;;;;;;;;;;;;;;;20.95;85.99;101382.22;5022463;28;19910;-56
2023/08/14 08:40:15;;;;;;;;;;;;;;;21.05;85.79;101378.59;5022941;28;19976;-55
2023/08/14 08:42:41;;;;;;;;;;;;;;;21.12;83.23;101368.81;5021343;28;19916;-56
2023/08/14 08:45:07;;;;;;;;;;;;;;;21.23;82.80;101376.59;5022972;28;20199;-55
2023/08/14 08:47:36;;;;;;;;;;;;;;;21.33;83.72;101370.28;5023467;28;19909;-55
2023/08/14 08:50:01;;;;;;;;;;;;;;;21.50;83.89;101372.72;5023054;28;19964;-55
2023/08/14 08:52:27;;;;;;;;;;;;;;;21.58;82.20;101376.19;5022942;28;20101;-56
2023/08/14 08:54:54;;;;;;;;;;;;;;;21.76;79.32;101374.19;5020318;28;19909;-56
2023/08/14 08:57:20;;;;;;;;;;;;;;;21.83;79.26;101368.75;5021541;28;19932;-56
2023/08/14 08:59:47;;;;;;;;;;;;;;;21.85;78.90;101361.63;5018788;28;19913;-56
2023/08/14 09:02:12;;;;;;;;;;;;;;;21.90;77.80;101361.59;5022205;28;19948;-56
2023/08/14 09:04:37;;;;;;;;;;;;;;;22.02;77.55;101364.03;5021386;28;19921;-56
2023/08/14 09:07:02;;;;;;;;;;;;;;;22.05;75.78;101365.78;5021788;28;19931;-56
2023/08/14 09:09:28;;;;;;;;;;;;;;;22.02;76.12;101369.34;5020708;28;19925;-56
2023/08/14 09:11:53;;;;;;;;;;;;;;;22.04;74.16;101367.56;5018781;28;19909;-55
2023/08/14 09:14:21;;;;;;;;;;;;;;;22.08;74.22;101362.22;5022506;28;19956;-56
2023/08/14 09:16:46;;;;;;;;;;;;;;;22.16;75.50;101358.53;5023934;28;19906;-55
2023/08/14 09:19:13;;;;;;;;;;;;;;;22.32;73.55;101367.13;5023540;28;20140;-55
2023/08/14 09:21:39;;;;;;;;;;;;;;;22.41;71.86;101360.78;5023907;28;20167;-56
2023/08/14 09:24:05;;;;;;;;;;;;;;;22.58;72.54;101360.50;5023916;28;20080;-56
2023/08/14 09:26:30;;;;;;;;;;;;;;;22.72;73.02;101360.22;5021407;28;20056;-56
2023/08/14 09:28:56;;;;;;;;;;;;;;;22.92;72.39;101363.38;5020626;28;20018;-56
2023/08/14 09:31:21;;;;;;;;;;;;;;;23.08;69.34;101366.59;5023065;28;19948;-57
2023/08/14 09:33:46;;;;;;;;;;;;;;;23.22;71.73;101365.50;5010290;28;20071;-56
2023/08/14 09:36:12;;;;;;;;;;;;;;;23.33;72.23;101382.06;5022685;28;19925;-56
2023/08/14 09:38:38;;;;;;;;;;;;;;;23.47;69.16;101378.28;5023777;28;20056;-56
2023/08/14 09:41:04;;;;;;;;;;;;;;;23.67;68.17;101376.03;5023315;28;20147;-56
2023/08/14 09:43:30;;;;;;;;;;;;;;;23.89;67.59;101384.44;5023310;28;19909;-56
2023/08/14 09:45:56;;;;;;;;;;;;;;;24.05;65.47;101384.06;5023678;28;19905;-56
2023/08/14 09:48:21;;;;;;;;;;;;;;;24.03;66.35;101388.53;5022242;28;19951;-56
2023/08/14 09:50:50;;;;;;;;;;;;;;;23.85;62.90;101380.06;5022843;28;19929;-56
2023/08/14 09:53:18;;;;;;;;;;;;;;;23.69;63.95;101376.88;5018657;28;19909;-56
2023/08/14 09:55:44;;;;;;;;;;;;;;;23.53;66.24;101371.00;5022653;28;19910;-56
2023/08/14 09:58:09;;;;;;;;;;;;;;;23.69;64.36;101371.53;5021923;28;19973;-55
2023/08/14 10:00:36;;;;;;;;;;;;;;;23.73;63.55;101361.72;5017218;28;19931;-56
2023/08/14 10:03:02;;;;;;;;;;;;;;;23.83;64.50;101362.41;5022403;28;19921;-56
2023/08/14 10:05:27;;;;;;;;;;;;;;;23.98;61.88;101351.41;5022997;28;19905;-56
2023/08/14 10:07:54;;;;;;;;;;;;;;;24.03;63.59;101360.16;5009665;28;19916;-56
2023/08/14 10:10:20;;;;;;;;;;;;;;;24.02;63.67;101349.53;5019736;28;19913;-56
2023/08/14 10:12:50;;;;;;;;;;;;;;;24.00;64.80;101346.94;5021663;28;20082;-56
2023/08/14 10:15:17;;;;;;;;;;;;;;;24.09;65.30;101343.16;5020200;28;19910;-56
2023/08/14 10:17:51;;;;;;;;;;;;;;;24.11;63.96;101333.34;5022029;28;19910;-56
2023/08/14 10:20:21;;;;;;;;;;;;;;;24.33;65.86;101320.34;5023152;28;19988;-56
2023/08/14 10:22:46;;;;;;;;;;;;;;;24.67;63.63;101322.13;5021615;28;20062;-56
2023/08/14 10:25:12;;;;;;;;;;;;;;;24.72;61.78;101322.88;5016560;28;19916;-56
2023/08/14 10:27:38;;;;;;;;;;;;;;;24.63;59.32;101318.66;5024554;28;19918;-57
2023/08/14 10:30:04;;;;;;;;;;;;;;;24.63;63.40;101307.16;5023313;28;19909;-56
2023/08/14 10:32:30;;;;;;;;;;;;;;;24.87;61.18;101305.59;5025076;28;19913;-58
2023/08/14 10:34:55;;;;;;;;;;;;;;;25.12;62.92;101296.88;5022308;28;19916;-58
2023/08/14 10:37:27;;;;;;;;;;;;;;;25.20;62.86;101286.84;5025453;28;19918;-58
2023/08/14 10:39:57;;;;;;;;;;;;;;;25.30;57.07;101296.31;5024363;28;19956;-58
2023/08/14 10:42:22;;;;;;;;;;;;;;;25.22;58.14;101295.66;5026430;28;20011;-58
2023/08/14 10:44:48;;;;;;;;;;;;;;;25.01;58.30;101283.84;5025791;28;19923;-58
2023/08/14 10:47:14;;;;;;;;;;;;;;;25.14;57.33;101298.56;5025904;28;19910;-58
2023/08/14 10:49:45;;;;;;;;;;;;;;;25.39;59.00;101296.97;5025534;28;20079;-58
2023/08/14 10:52:19;;;;;;;;;;;;;;;25.54;56.09;101300.97;5024214;28;19910;-58
2023/08/14 10:54:48;;;;;;;;;;;;;;;25.50;57.98;101294.84;5023756;28;20083;-58
2023/08/14 10:57:14;;;;;;;;;;;;;;;25.47;58.59;101294.94;5026490;28;19909;-58
2023/08/14 10:59:41;;;;;;;;;;;;;;;25.46;57.12;101299.41;5025894;28;19932;-58
2023/08/14 11:02:09;;;;;;;;;;;;;;;25.61;59.22;101298.03;5024900;28;19976;-58
2023/08/14 11:04:39;;;;;;;;;;;;;;;25.61;58.29;101295.38;5025754;28;19910;-58
2023/08/14 11:07:07;;;;;;;;;;;;;;;25.39;59.57;101302.28;5025851;28;19925;-58
2023/08/14 11:09:33;;;;;;;;;;;;;;;25.47;59.14;101305.59;5024899;28;20083;-56
2023/08/14 11:12:06;;;;;;;;;;;;;;;25.77;60.83;101300.22;5026013;28;19951;-59
2023/08/14 11:14:34;;;;;;;;;;;;;;;26.15;57.83;101304.28;5025015;28;19909;-58
2023/08/14 11:16:59;;;;;;;;;;;;;;;26.44;58.18;101305.06;5026283;28;19925;-59
2023/08/14 11:19:25;;;;;;;;;;;;;;;26.34;56.02;101307.19;5026373;28;20054;-58
2023/08/14 11:21:50;;;;;;;;;;;;;;;26.30;53.65;101307.34;5025548;28;20063;-58
2023/08/14 11:24:18;;;;;;;;;;;;;;;26.01;54.97;101307.44;5023207;28;19980;-58
2023/08/14 11:26:43;;;;;;;;;;;;;;;26.14;57.96;101299.91;5024131;28;20187;-58
2023/08/14 11:29:09;;;;;;;;;;;;;;;26.47;56.48;101293.41;5007161;28;19972;-59
2023/08/14 11:31:34;;;;;;;;;;;;;;;26.87;55.87;101291.97;5025720;28;19910;-59
2023/08/14 11:34:00;;;;;;;;;;;;;;;27.12;55.40;101283.88;5020692;28;19940;-59
2023/08/14 11:36:25;;;;;;;;;;;;;;;27.28;55.61;101284.16;5024522;28;20174;-58
2023/08/14 11:38:50;;;;;;;;;;;;;;;27.50;54.33;101286.88;5021421;28;20079;-59
2023/08/14 11:41:16;;;;;;;;;;;;;;;27.64;54.96;101286.31;5023552;28;20183;-58
2023/08/14 11:43:41;;;;;;;;;;;;;;;27.62;49.87;101295.34;5021623;28;19955;-59
2023/08/14 11:46:07;;;;;;;;;;;;;;;27.07;52.18;101288.56;5018696;28;19909;-58
2023/08/14 11:48:32;;;;;;;;;;;;;;;26.61;52.53;101295.59;5006874;28;19910;-59
2023/08/14 11:50:58;;;;;;;;;;;;;;;26.62;54.09;101286.63;5007098;28;19948;-59
2023/08/14 11:53:24;;;;;;;;;;;;;;;27.04;55.58;101288.66;5025344;28;19916;-58
2023/08/14 11:55:49;;;;;;;;;;;;;;;27.31;52.59;101285.84;5024611;28;20079;-59
2023/08/14 11:58:14;;;;;;;;;;;;;;;27.42;51.54;101286.31;5024620;28;19956;-58
2023/08/14 12:00:41;;;;;;;;;;;;;;;27.25;51.07;101286.94;5024595;28;19917;-59
2023/08/14 12:03:06;;;;;;;;;;;;;;;26.89;52.92;101282.94;5020601;28;19936;-59
2023/08/14 12:05:32;;;;;;;;;;;;;;;26.49;52.96;101272.84;5021969;28;19909;-59
2023/08/14 12:08:00;;;;;;;;;;;;;;;26.18;54.91;101276.59;5024451;28;19909;-58
2023/08/14 12:10:30;;;;;;;;;;;;;;;26.18;55.33;101277.47;5017506;28;19920;-59
2023/08/14 12:12:58;;;;;;;;;;;;;;;26.29;55.90;101273.56;5019524;28;20197;-58
2023/08/14 12:15:25;;;;;;;;;;;;;;;26.40;54.40;101262.47;5008904;28;19924;-58
2023/08/14 12:17:51;;;;;;;;;;;;;;;26.61;53.15;101258.16;5023345;28;19909;-59
2023/08/14 12:20:16;;;;;;;;;;;;;;;26.70;50.87;101258.72;5024109;28;19909;-59
2023/08/14 12:22:42;;;;;;;;;;;;;;;26.47;53.10;101254.19;5023385;28;19913;-60
2023/08/14 12:25:08;;;;;;;;;;;;;;;26.65;53.63;101263.34;5023865;28;19913;-60
2023/08/14 12:27:33;;;;;;;;;;;;;;;26.79;51.59;101259.31;5023832;28;20148;-59
2023/08/14 12:29:58;;;;;;;;;;;;;;;26.82;53.35;101256.50;5024653;28;19929;-60
2023/08/14 12:32:24;;;;;;;;;;;;;;;26.87;52.72;101255.41;5023221;28;19913;-59